createdAt,value
2023-01-20T00:01:44.053Z,9.10
2023-01-20T00:03:54.715Z,9.10
2023-01-20T00:06:04.708Z,9.11
2023-01-20T00:08:14.865Z,9.09
2023-01-20T00:10:24.835Z,9.07
2023-01-20T00:12:36.070Z,9.04
2023-01-20T00:14:46.625Z,8.99
2023-01-20T00:16:57.872Z,8.93
2023-01-20T00:19:07.875Z,8.88
2023-01-20T00:21:18.617Z,8.82
2023-01-20T00:23:28.635Z,8.77
2023-01-20T00:25:39.455Z,8.71
2023-01-20T00:27:49.504Z,8.63
2023-01-20T00:29:59.525Z,8.56
2023-01-20T00:32:09.652Z,8.50
2023-01-20T00:34:19.562Z,8.44
2023-01-20T00:36:31.584Z,8.38
2023-01-20T00:38:41.656Z,8.32
2023-01-20T00:40:57.674Z,8.26
2023-01-20T00:43:07.604Z,8.20
2023-01-20T00:45:17.707Z,8.15
2023-01-20T00:47:27.798Z,8.07
2023-01-20T00:49:37.465Z,8.02
2023-01-20T00:51:47.683Z,7.96
2023-01-20T00:53:57.791Z,7.90
2023-01-20T00:56:08.428Z,7.83
2023-01-20T00:58:18.485Z,7.76
2023-01-20T01:00:28.859Z,7.70
2023-01-20T01:02:44.478Z,7.64
2023-01-20T01:04:55.378Z,7.56
2023-01-20T01:07:05.251Z,7.49
2023-01-20T01:09:15.559Z,7.45
2023-01-20T01:11:26.305Z,7.39
2023-01-20T01:13:37.666Z,7.34
2023-01-20T01:15:53.611Z,7.28
2023-01-20T01:18:04.366Z,7.20
2023-01-20T01:20:16.141Z,7.13
2023-01-20T01:22:26.516Z,7.07
2023-01-20T01:24:36.750Z,6.99
2023-01-20T01:26:47.088Z,6.92
2023-01-20T01:28:57.126Z,6.85
2023-01-20T01:31:08.114Z,6.80
2023-01-20T01:33:18.100Z,6.72
2023-01-20T01:35:28.141Z,6.68
2023-01-20T01:37:38.275Z,6.63
2023-01-20T01:39:47.966Z,6.56
2023-01-20T01:41:57.870Z,6.49
2023-01-20T01:44:11.473Z,6.43
2023-01-20T01:46:22.056Z,6.36
2023-01-20T01:48:36.095Z,6.30
2023-01-20T01:50:49.597Z,6.23
2023-01-20T01:53:00.314Z,6.19
2023-01-20T01:55:11.705Z,6.14
2023-01-20T01:57:23.080Z,6.08
2023-01-20T01:59:33.521Z,6.03
2023-01-20T02:01:47.007Z,5.98
2023-01-20T02:04:01.097Z,5.94
2023-01-20T02:06:12.214Z,5.90
2023-01-20T02:08:22.665Z,5.87
2023-01-20T02:10:33.195Z,5.83
2023-01-20T02:12:45.536Z,5.79
2023-01-20T02:14:58.274Z,5.75
2023-01-20T02:17:16.578Z,5.70
2023-01-20T02:20:05.121Z,5.65
2023-01-20T02:22:27.225Z,5.59
2023-01-20T02:25:16.841Z,5.54
2023-01-20T02:27:43.625Z,5.49
2023-01-20T02:30:26.368Z,5.45
2023-01-20T02:32:45.713Z,5.41
2023-01-20T02:35:00.365Z,5.37
2023-01-20T02:37:16.034Z,5.34
2023-01-20T02:39:30.382Z,5.30
2023-01-20T02:41:48.308Z,5.25
2023-01-20T02:44:04.507Z,5.22
2023-01-20T02:46:18.088Z,5.18
2023-01-20T02:48:34.250Z,5.15
2023-01-20T02:50:47.178Z,5.13
2023-01-20T02:53:00.669Z,5.10
2023-01-20T02:55:16.343Z,5.08
2023-01-20T02:57:31.215Z,5.06
2023-01-20T02:59:45.159Z,5.03
2023-01-20T03:02:02.988Z,5.00
2023-01-20T03:04:16.197Z,4.97
2023-01-20T03:06:29.705Z,4.95
2023-01-20T03:08:42.740Z,4.93
2023-01-20T03:10:56.058Z,4.91
2023-01-20T03:13:14.105Z,4.88
2023-01-20T03:15:29.996Z,4.86
2023-01-20T03:17:40.376Z,4.84
2023-01-20T03:19:50.880Z,4.82
2023-01-20T03:22:00.976Z,4.79
2023-01-20T03:24:12.425Z,4.77
2023-01-20T03:26:24.154Z,4.76
2023-01-20T03:28:34.246Z,4.73
2023-01-20T03:30:44.189Z,4.71
2023-01-20T03:32:55.411Z,4.70
2023-01-20T03:35:06.247Z,4.68
2023-01-20T03:37:17.055Z,4.65
2023-01-20T03:39:28.050Z,4.62
2023-01-20T03:41:45.319Z,4.61
2023-01-20T03:44:04.954Z,4.59
2023-01-20T03:46:22.266Z,4.57
2023-01-20T03:48:40.293Z,4.56
2023-01-20T03:50:56.867Z,4.53
2023-01-20T03:53:16.995Z,4.51
2023-01-20T03:55:32.176Z,4.50
2023-01-20T03:57:47.285Z,4.48
2023-01-20T03:59:59.178Z,4.46
2023-01-20T04:02:10.763Z,4.44
2023-01-20T04:04:22.752Z,4.42
2023-01-20T04:06:35.446Z,4.40
2023-01-20T04:08:50.339Z,4.38
2023-01-20T04:11:03.256Z,4.35
2023-01-20T04:13:13.386Z,4.34
2023-01-20T04:15:25.760Z,4.32
2023-01-20T04:17:35.769Z,4.30
2023-01-20T04:19:45.759Z,4.28
2023-01-20T04:22:02.643Z,4.28
2023-01-20T04:24:19.507Z,4.26
2023-01-20T04:26:29.610Z,4.24
2023-01-20T04:28:39.416Z,4.23
2023-01-20T04:30:49.961Z,4.21
2023-01-20T04:32:59.716Z,4.20
2023-01-20T04:35:11.803Z,4.17
2023-01-20T04:37:22.295Z,4.15
2023-01-20T04:39:32.546Z,4.13
2023-01-20T04:41:43.302Z,4.11
2023-01-20T04:43:53.246Z,4.10
2023-01-20T04:46:04.596Z,4.08
2023-01-20T04:48:15.085Z,4.07
2023-01-20T04:50:24.979Z,4.05
2023-01-20T04:52:35.329Z,4.04
2023-01-20T04:54:45.591Z,4.03
2023-01-20T04:56:55.695Z,4.02
2023-01-20T04:59:05.684Z,4.01
2023-01-20T05:01:16.051Z,4.01
2023-01-20T05:03:26.046Z,4.00
2023-01-20T05:05:35.786Z,4.00
2023-01-20T05:07:45.733Z,4.00
2023-01-20T05:09:55.756Z,4.00
2023-01-20T05:12:06.040Z,4.00
2023-01-20T05:14:16.813Z,3.98
2023-01-20T05:16:32.440Z,3.97
2023-01-20T05:18:42.400Z,3.98
2023-01-20T05:20:52.855Z,3.99
2023-01-20T05:23:02.603Z,3.99
2023-01-20T05:25:13.832Z,3.99
2023-01-20T05:27:24.025Z,3.99
2023-01-20T05:29:34.800Z,3.99
2023-01-20T05:31:44.810Z,4.00
2023-01-20T05:33:54.857Z,4.00
2023-01-20T05:36:09.194Z,4.00
2023-01-20T05:38:19.225Z,4.00
2023-01-20T05:40:29.238Z,4.00
2023-01-20T05:42:39.666Z,4.00
2023-01-20T05:44:49.976Z,4.00
2023-01-20T05:46:59.914Z,4.00
2023-01-20T05:49:12.302Z,4.01
2023-01-20T05:51:22.318Z,4.01
2023-01-20T05:53:32.718Z,4.00
2023-01-20T05:55:43.416Z,3.99
2023-01-20T05:57:53.601Z,4.00
2023-01-20T06:00:03.605Z,4.00
2023-01-20T06:02:19.170Z,3.99
2023-01-20T06:04:29.110Z,4.00
2023-01-20T06:06:39.723Z,4.01
2023-01-20T06:08:50.138Z,4.02
2023-01-20T06:10:59.856Z,4.02
2023-01-20T06:13:10.269Z,4.02
2023-01-20T06:15:21.068Z,4.02
2023-01-20T06:17:31.080Z,4.04
2023-01-20T06:19:40.948Z,4.05
2023-01-20T06:21:50.966Z,4.06
2023-01-20T06:24:00.789Z,4.07
2023-01-20T06:26:14.770Z,4.08
2023-01-20T06:28:24.636Z,4.10
2023-01-20T06:30:34.538Z,4.11
2023-01-20T06:32:44.247Z,4.13
2023-01-20T06:34:53.975Z,4.14
2023-01-20T06:37:03.775Z,4.14
2023-01-20T06:39:13.546Z,4.17
2023-01-20T06:41:24.156Z,4.19
2023-01-20T06:43:35.544Z,4.20
2023-01-20T06:45:45.742Z,4.22
2023-01-20T06:47:55.615Z,4.23
2023-01-20T06:50:05.679Z,4.24
2023-01-20T06:52:15.626Z,4.25
2023-01-20T06:54:25.687Z,4.26
2023-01-20T06:56:35.877Z,4.26
2023-01-20T06:58:46.585Z,4.27
2023-01-20T07:00:57.468Z,4.28
2023-01-20T07:03:07.573Z,4.28
2023-01-20T07:05:17.392Z,4.28
2023-01-20T07:07:27.506Z,4.27
2023-01-20T07:09:38.198Z,4.25
2023-01-20T07:11:48.806Z,4.23
2023-01-20T07:13:58.523Z,4.22
2023-01-20T07:16:10.978Z,4.21
2023-01-20T07:18:22.105Z,4.19
2023-01-20T07:20:31.906Z,4.18
2023-01-20T07:22:42.375Z,4.16
2023-01-20T07:24:52.117Z,4.15
2023-01-20T07:27:02.410Z,4.13
2023-01-20T07:29:12.275Z,4.12
2023-01-20T07:31:23.381Z,4.12
2023-01-20T07:33:33.087Z,4.11
2023-01-20T07:35:43.265Z,4.10
2023-01-20T07:37:53.075Z,4.09
2023-01-20T07:40:03.202Z,4.08
2023-01-20T07:42:12.751Z,4.08
2023-01-20T07:44:23.068Z,4.07
2023-01-20T07:46:33.713Z,4.06
2023-01-20T07:48:43.996Z,4.05
2023-01-20T07:50:58.294Z,4.05
2023-01-20T07:53:09.007Z,4.05
2023-01-20T07:55:19.347Z,4.04
2023-01-20T07:57:30.544Z,4.03
2023-01-20T07:59:40.396Z,4.03
2023-01-20T08:01:50.382Z,4.02
2023-01-20T08:04:02.075Z,4.00
2023-01-20T08:06:14.394Z,3.99
2023-01-20T08:08:25.038Z,3.97
2023-01-20T08:10:35.151Z,3.96
2023-01-20T08:12:45.185Z,3.96
2023-01-20T08:14:55.099Z,3.95
2023-01-20T08:17:05.181Z,3.94
2023-01-20T08:19:15.117Z,3.92
2023-01-20T08:21:27.180Z,3.89
2023-01-20T08:23:38.025Z,3.87
2023-01-20T08:25:47.856Z,3.86
2023-01-20T08:27:58.150Z,3.85
2023-01-20T08:30:09.211Z,3.85
2023-01-20T08:32:19.516Z,3.84
2023-01-20T08:34:29.860Z,3.84
2023-01-20T08:36:42.031Z,3.84
2023-01-20T08:38:52.579Z,3.83
2023-01-20T08:41:02.229Z,3.82
2023-01-20T08:43:12.368Z,3.81
2023-01-20T08:45:22.872Z,3.79
2023-01-20T08:47:32.765Z,3.77
2023-01-20T08:49:42.539Z,3.76
2023-01-20T08:51:52.626Z,3.75
2023-01-20T08:54:03.120Z,3.74
2023-01-20T08:56:13.979Z,3.72
2023-01-20T08:58:25.443Z,3.65
2023-01-20T09:00:36.675Z,3.59
2023-01-20T09:02:47.226Z,3.54
2023-01-20T09:04:57.667Z,3.48
2023-01-20T09:07:08.375Z,3.44
2023-01-20T09:09:20.087Z,3.39
2023-01-20T09:11:30.408Z,3.34
2023-01-20T09:13:40.599Z,3.29
2023-01-20T09:15:55.453Z,3.25
2023-01-20T09:18:05.587Z,3.23
2023-01-20T09:20:17.394Z,3.22
2023-01-20T09:22:27.275Z,3.25
2023-01-20T09:24:37.371Z,3.26
2023-01-20T09:26:47.485Z,3.28
2023-01-20T09:28:57.245Z,3.29
2023-01-20T09:31:09.060Z,3.29
2023-01-20T09:33:19.136Z,3.30
2023-01-20T09:35:28.844Z,3.31
2023-01-20T09:37:55.790Z,3.31
2023-01-20T09:40:22.850Z,3.31
2023-01-20T09:42:59.620Z,3.31
2023-01-20T09:45:25.574Z,3.32
2023-01-20T09:47:40.546Z,3.35
2023-01-20T09:50:20.712Z,3.38
2023-01-20T09:52:52.668Z,3.40
2023-01-20T09:55:07.720Z,3.41
2023-01-20T09:57:22.311Z,3.43
2023-01-20T09:59:38.817Z,3.44
2023-01-20T10:01:50.987Z,3.46
2023-01-20T10:04:07.287Z,3.47
2023-01-20T10:06:27.067Z,3.47
2023-01-20T10:08:43.175Z,3.48
2023-01-20T10:11:02.545Z,3.48
2023-01-20T10:13:20.215Z,3.48
2023-01-20T10:15:32.095Z,3.48
2023-01-20T10:17:48.477Z,3.48
2023-01-20T10:20:04.696Z,3.49
2023-01-20T10:22:20.087Z,3.48
2023-01-20T10:24:34.677Z,3.47
2023-01-20T10:26:50.965Z,3.48
2023-01-20T10:29:04.258Z,3.49
2023-01-20T10:31:16.885Z,3.51
2023-01-20T10:33:32.046Z,3.52
2023-01-20T10:35:45.316Z,3.54
2023-01-20T10:37:56.803Z,3.56
2023-01-20T10:40:18.470Z,3.58
2023-01-20T10:42:29.135Z,3.59
2023-01-20T10:44:39.701Z,3.61
2023-01-20T10:47:00.917Z,3.63
2023-01-20T10:49:42.485Z,3.66
2023-01-20T10:52:06.946Z,3.68
2023-01-20T10:54:28.805Z,3.69
2023-01-20T10:56:53.828Z,3.68
2023-01-20T10:59:09.370Z,3.67
2023-01-20T11:01:20.864Z,3.68
2023-01-20T11:03:35.076Z,3.67
2023-01-20T11:05:45.766Z,3.67
2023-01-20T11:07:58.271Z,3.69
2023-01-20T11:10:19.145Z,3.68
2023-01-20T11:12:37.398Z,3.69
2023-01-20T11:14:48.167Z,3.68
2023-01-20T11:17:04.879Z,3.68
2023-01-20T11:19:15.027Z,3.67
2023-01-20T11:21:28.163Z,3.67
2023-01-20T11:23:44.416Z,3.68
2023-01-20T11:26:00.645Z,3.68
2023-01-20T11:28:20.343Z,3.67
2023-01-20T11:30:33.219Z,3.64
2023-01-20T11:32:45.678Z,3.64
2023-01-20T11:34:56.418Z,3.64
2023-01-20T11:37:25.991Z,3.63
2023-01-20T11:39:44.331Z,3.62
2023-01-20T11:42:16.913Z,3.61
2023-01-20T11:44:27.440Z,3.59
2023-01-20T11:46:38.967Z,3.58
2023-01-20T11:48:48.669Z,3.56
2023-01-20T11:51:03.977Z,3.54
2023-01-20T11:53:25.286Z,3.54
2023-01-20T11:55:44.977Z,3.53
2023-01-20T11:57:58.473Z,3.53
2023-01-20T12:00:30.218Z,3.51
2023-01-20T12:02:41.944Z,3.51
2023-01-20T12:05:13.527Z,3.51
2023-01-20T12:07:29.905Z,3.49
2023-01-20T12:09:43.877Z,3.48
2023-01-20T12:11:58.536Z,3.47
2023-01-20T12:14:23.887Z,3.46
2023-01-20T12:16:35.138Z,3.45
2023-01-20T12:19:01.945Z,3.44
2023-01-20T12:21:18.823Z,3.43
2023-01-20T12:23:46.506Z,3.43
2023-01-20T12:25:59.816Z,3.41
2023-01-20T12:28:16.419Z,3.40
2023-01-20T12:30:58.097Z,3.41
2023-01-20T12:33:13.820Z,3.39
2023-01-20T12:35:30.931Z,3.38
2023-01-20T12:37:50.018Z,3.36
2023-01-20T12:40:17.621Z,3.33
2023-01-20T12:42:55.505Z,3.32
2023-01-20T12:45:14.167Z,3.30
2023-01-20T12:47:41.405Z,3.29
2023-01-20T12:50:08.055Z,3.27
2023-01-20T12:52:44.083Z,3.25
2023-01-20T12:55:17.449Z,3.22
2023-01-20T12:57:43.900Z,3.19
2023-01-20T13:00:03.593Z,3.17
2023-01-20T13:02:39.199Z,3.13
2023-01-20T13:05:16.738Z,3.11
2023-01-20T13:07:51.131Z,3.07
2023-01-20T13:10:28.186Z,3.04
2023-01-20T13:12:48.847Z,3.02
2023-01-20T13:15:04.527Z,3.01
2023-01-20T13:17:21.552Z,3.01
2023-01-20T13:19:35.375Z,3.01
2023-01-20T13:21:46.089Z,3.01
2023-01-20T13:24:00.937Z,3.01
2023-01-20T13:26:11.567Z,3.01
2023-01-20T13:28:24.074Z,3.01
2023-01-20T13:30:52.185Z,3.01
2023-01-20T13:33:08.890Z,3.01
2023-01-20T13:35:46.931Z,3.00
2023-01-20T13:37:58.198Z,2.98
2023-01-20T13:40:23.145Z,2.98
2023-01-20T13:42:50.645Z,2.96
2023-01-20T13:45:18.398Z,2.96
2023-01-20T13:47:55.192Z,2.97
2023-01-20T13:50:26.134Z,2.97
2023-01-20T13:53:14.663Z,2.95
2023-01-20T13:55:51.770Z,2.91
2023-01-20T13:58:01.998Z,2.88
2023-01-20T14:00:23.405Z,2.86
2023-01-20T14:02:40.131Z,2.84
2023-01-20T14:04:52.067Z,2.82
2023-01-20T14:07:05.136Z,2.81
2023-01-20T14:09:23.040Z,2.79
2023-01-20T14:11:33.575Z,2.78
2023-01-20T14:13:43.644Z,2.77
2023-01-20T14:15:56.396Z,2.76
2023-01-20T14:18:04.503Z,2.75
2023-01-20T14:20:25.173Z,2.73
2023-01-20T14:22:35.907Z,2.72
2023-01-20T14:24:49.659Z,2.70
2023-01-20T14:27:17.111Z,2.69
2023-01-20T14:29:30.191Z,2.69
2023-01-20T14:31:45.853Z,2.71
2023-01-20T14:34:04.141Z,2.71
2023-01-20T14:36:19.372Z,2.72
2023-01-20T14:38:29.227Z,2.72
2023-01-20T14:40:40.745Z,2.72
2023-01-20T14:42:58.786Z,2.71
2023-01-20T14:45:23.183Z,2.69
2023-01-20T14:47:35.385Z,2.67
2023-01-20T14:49:48.508Z,2.67
2023-01-20T14:51:59.291Z,2.66
2023-01-20T14:54:43.986Z,2.66
2023-01-20T14:56:54.807Z,2.64
2023-01-20T14:59:05.205Z,2.65
2023-01-20T15:01:25.683Z,2.64
2023-01-20T15:03:36.568Z,2.63
2023-01-20T15:05:58.642Z,2.58
2023-01-20T15:08:26.110Z,2.56
2023-01-20T15:10:36.556Z,2.52
2023-01-20T15:12:56.825Z,2.46
2023-01-20T15:15:21.216Z,2.42
2023-01-20T15:17:31.125Z,2.38
2023-01-20T15:19:46.507Z,2.37
2023-01-20T15:21:58.110Z,2.37
2023-01-20T15:24:17.510Z,2.39
2023-01-20T15:26:31.117Z,2.40
2023-01-20T15:28:44.364Z,2.40
2023-01-20T15:30:54.636Z,2.41
2023-01-20T15:33:04.646Z,2.42
2023-01-20T15:35:20.472Z,2.43
2023-01-20T15:37:30.476Z,2.43
2023-01-20T15:39:40.459Z,2.43
2023-01-20T15:41:57.755Z,2.41
2023-01-20T15:44:07.677Z,2.40
2023-01-20T15:46:18.611Z,2.39
2023-01-20T15:48:28.687Z,2.37
2023-01-20T15:50:38.486Z,2.35
2023-01-20T15:52:48.669Z,2.35
2023-01-20T15:54:58.566Z,2.35
2023-01-20T15:57:14.815Z,2.36
2023-01-20T15:59:26.405Z,2.35
2023-01-20T16:01:36.190Z,2.34
2023-01-20T16:03:46.196Z,2.33
2023-01-20T16:05:58.075Z,2.33
2023-01-20T16:08:14.376Z,2.34
2023-01-20T16:10:24.135Z,2.35
2023-01-20T16:12:34.299Z,2.34
2023-01-20T16:14:44.581Z,2.34
2023-01-20T16:16:54.398Z,2.33
2023-01-20T16:19:05.320Z,2.36
2023-01-20T16:21:16.836Z,2.37
2023-01-20T16:23:26.919Z,2.41
2023-01-20T16:25:36.839Z,2.43
2023-01-20T16:27:46.580Z,2.46
2023-01-20T16:29:56.947Z,2.49
2023-01-20T16:32:07.905Z,2.54
2023-01-20T16:34:18.049Z,2.57
2023-01-20T16:36:28.496Z,2.61
2023-01-20T16:38:38.735Z,2.63
2023-01-20T16:40:53.595Z,2.67
2023-01-20T16:43:03.736Z,2.71
2023-01-20T16:45:29.101Z,2.75
2023-01-20T16:47:39.260Z,2.78
2023-01-20T16:49:50.175Z,2.80
2023-01-20T16:52:00.859Z,2.82
2023-01-20T16:54:11.205Z,2.85
2023-01-20T16:56:22.339Z,2.87
2023-01-20T16:58:32.540Z,2.88
2023-01-20T17:00:43.132Z,2.90
2023-01-20T17:02:55.157Z,2.92
2023-01-20T17:05:05.228Z,2.95
2023-01-20T17:07:15.585Z,2.97
2023-01-20T17:09:26.348Z,3.01
2023-01-20T17:11:38.855Z,3.06
2023-01-20T17:13:48.716Z,3.13
2023-01-20T17:15:59.601Z,3.19
2023-01-20T17:18:10.915Z,3.25
2023-01-20T17:20:21.156Z,3.32
2023-01-20T17:22:30.809Z,3.39
2023-01-20T17:24:40.806Z,3.45
2023-01-20T17:26:50.816Z,3.51
2023-01-20T17:29:02.759Z,3.59
2023-01-20T17:31:12.528Z,3.65
2023-01-20T17:33:22.980Z,3.72
2023-01-20T17:35:33.466Z,3.79
2023-01-20T17:37:43.180Z,3.87
2023-01-20T17:39:53.265Z,3.95
2023-01-20T17:42:03.219Z,4.02
2023-01-20T17:44:14.387Z,4.10
2023-01-20T17:46:25.789Z,4.19
2023-01-20T17:48:35.719Z,4.27
2023-01-20T17:50:46.277Z,4.34
2023-01-20T17:52:56.636Z,4.42
2023-01-20T17:55:06.395Z,4.49
2023-01-20T17:57:16.607Z,4.56
2023-01-20T17:59:27.288Z,4.62
2023-01-20T18:01:37.121Z,4.70
2023-01-20T18:03:47.902Z,4.78
2023-01-20T18:05:59.058Z,4.87
2023-01-20T18:08:09.216Z,4.94
2023-01-20T18:10:20.258Z,5.02
2023-01-20T18:12:30.156Z,5.09
2023-01-20T18:14:40.038Z,5.17
2023-01-20T18:16:50.697Z,5.25
2023-01-20T18:19:01.302Z,5.32
2023-01-20T18:21:16.443Z,5.39
2023-01-20T18:23:26.737Z,5.47
2023-01-20T18:25:36.487Z,5.55
2023-01-20T18:27:46.324Z,5.62
2023-01-20T18:29:56.379Z,5.68
2023-01-20T18:32:06.497Z,5.76
2023-01-20T18:34:17.948Z,5.83
2023-01-20T18:36:30.185Z,5.90
2023-01-20T18:38:43.577Z,5.97
2023-01-20T18:40:53.903Z,6.04
2023-01-20T18:43:03.517Z,6.11
2023-01-20T18:45:15.077Z,6.19
2023-01-20T18:47:25.488Z,6.27
2023-01-20T18:49:35.609Z,6.34
2023-01-20T18:51:45.368Z,6.41
2023-01-20T18:54:00.569Z,6.49
2023-01-20T18:56:12.658Z,6.56
2023-01-20T18:58:23.136Z,6.62
2023-01-20T19:00:33.575Z,6.68
2023-01-20T19:02:43.717Z,6.75
2023-01-20T19:04:53.622Z,6.82
2023-01-20T19:07:03.467Z,6.89
2023-01-20T19:09:16.286Z,6.96
2023-01-20T19:11:28.433Z,7.03
2023-01-20T19:13:38.818Z,7.11
2023-01-20T19:15:48.694Z,7.18
2023-01-20T19:17:58.557Z,7.23
2023-01-20T19:20:09.855Z,7.27
2023-01-20T19:22:20.075Z,7.31
2023-01-20T19:24:31.185Z,7.33
2023-01-20T19:26:42.087Z,7.36
2023-01-20T19:28:57.680Z,7.39
2023-01-20T19:31:12.917Z,7.45
2023-01-20T19:33:22.591Z,7.47
2023-01-20T19:35:34.225Z,7.49
2023-01-20T19:37:44.395Z,7.49
2023-01-20T19:39:54.604Z,7.49
2023-01-20T19:42:04.548Z,7.49
2023-01-20T19:44:16.518Z,7.50
2023-01-20T19:46:27.404Z,7.53
2023-01-20T19:48:37.363Z,7.57
2023-01-20T19:50:47.435Z,7.62
2023-01-20T19:52:57.458Z,7.66
2023-01-20T19:55:08.379Z,7.71
2023-01-20T19:57:18.167Z,7.75
2023-01-20T19:59:28.026Z,7.78
2023-01-20T20:01:38.952Z,7.84
2023-01-20T20:03:49.276Z,7.89
2023-01-20T20:05:58.977Z,7.94
2023-01-20T20:08:09.516Z,7.98
2023-01-20T20:10:20.145Z,8.02
2023-01-20T20:12:29.777Z,8.05
2023-01-20T20:14:40.232Z,8.07
2023-01-20T20:16:50.615Z,8.08
2023-01-20T20:19:01.952Z,8.10
2023-01-20T20:21:12.408Z,8.15
2023-01-20T20:23:23.357Z,8.15
2023-01-20T20:25:38.126Z,8.15
2023-01-20T20:27:47.996Z,8.19
2023-01-20T20:30:01.902Z,8.22
2023-01-20T20:32:12.365Z,8.27
2023-01-20T20:34:23.043Z,8.29
2023-01-20T20:36:34.385Z,8.32
2023-01-20T20:38:45.477Z,8.35
2023-01-20T20:41:00.274Z,8.37
2023-01-20T20:43:10.248Z,8.38
2023-01-20T20:45:20.851Z,8.39
2023-01-20T20:47:30.769Z,8.39
2023-01-20T20:49:40.445Z,8.41
2023-01-20T20:51:50.437Z,8.44
2023-01-20T20:54:01.760Z,8.47
2023-01-20T20:56:16.531Z,8.53
2023-01-20T20:58:26.756Z,8.61
2023-01-20T21:00:36.620Z,8.65
2023-01-20T21:02:47.122Z,8.73
2023-01-20T21:04:57.826Z,8.81
2023-01-20T21:07:07.777Z,8.87
2023-01-20T21:09:17.836Z,8.92
2023-01-20T21:11:28.356Z,9.00
2023-01-20T21:13:38.827Z,9.05
2023-01-20T21:16:00.172Z,9.08
2023-01-20T21:18:10.205Z,9.12
2023-01-20T21:20:20.658Z,9.15
2023-01-20T21:22:30.628Z,9.21
2023-01-20T21:24:41.077Z,9.24
2023-01-20T21:26:50.917Z,9.29
2023-01-20T21:29:02.414Z,9.34
2023-01-20T21:31:13.731Z,9.38
2023-01-20T21:33:24.219Z,9.40
2023-01-20T21:35:34.136Z,9.47
2023-01-20T21:37:43.839Z,9.55
2023-01-20T21:39:53.881Z,9.60
2023-01-20T21:42:06.568Z,9.64
2023-01-20T21:44:33.526Z,9.65
2023-01-20T21:46:43.959Z,9.72
2023-01-20T21:49:11.370Z,9.82
2023-01-20T21:51:38.898Z,9.89
2023-01-20T21:53:48.772Z,9.94
2023-01-20T21:55:58.978Z,9.97
2023-01-20T21:58:10.836Z,10.01
2023-01-20T22:00:22.557Z,10.00
2023-01-20T22:02:32.859Z,10.03
2023-01-20T22:04:42.788Z,10.08
2023-01-20T22:06:52.576Z,10.12
2023-01-20T22:09:02.538Z,10.17
2023-01-20T22:11:12.318Z,10.20
2023-01-20T22:13:22.106Z,10.25
2023-01-20T22:15:32.087Z,10.30
2023-01-20T22:17:42.180Z,10.39
2023-01-20T22:19:52.567Z,10.47
2023-01-20T22:22:04.025Z,10.49
2023-01-20T22:24:15.095Z,10.48
2023-01-20T22:26:25.648Z,10.48
2023-01-20T22:28:40.237Z,10.46
2023-01-20T22:30:50.518Z,10.46
2023-01-20T22:33:00.886Z,10.48
2023-01-20T22:35:12.086Z,10.48
2023-01-20T22:37:23.957Z,10.47
2023-01-20T22:39:34.146Z,10.44
2023-01-20T22:41:44.798Z,10.39
2023-01-20T22:43:56.235Z,10.35
2023-01-20T22:46:07.182Z,10.31
2023-01-20T22:48:17.237Z,10.29
2023-01-20T22:50:27.330Z,10.28
2023-01-20T22:52:37.185Z,10.27
2023-01-20T22:54:46.888Z,10.27
2023-01-20T22:56:57.427Z,10.29
2023-01-20T22:59:07.482Z,10.31
2023-01-20T23:01:18.821Z,10.34
2023-01-20T23:03:28.926Z,10.35
2023-01-20T23:05:40.895Z,10.34
2023-01-20T23:07:50.976Z,10.31
2023-01-20T23:10:00.985Z,10.28
2023-01-20T23:12:11.236Z,10.26
2023-01-20T23:14:41.462Z,10.23
2023-01-20T23:16:51.592Z,10.21
2023-01-20T23:19:02.136Z,10.20
2023-01-20T23:21:12.405Z,10.19
2023-01-20T23:23:23.089Z,10.17
2023-01-20T23:25:33.099Z,10.15
2023-01-20T23:27:43.588Z,10.14
2023-01-20T23:29:56.245Z,10.14
2023-01-20T23:32:09.649Z,10.12
2023-01-20T23:34:19.975Z,10.10
2023-01-20T23:36:30.143Z,10.09
2023-01-20T23:38:40.141Z,10.08
2023-01-20T23:40:51.983Z,10.05
2023-01-20T23:43:02.265Z,10.03
2023-01-20T23:45:13.506Z,10.02
2023-01-20T23:47:23.435Z,10.02
2023-01-20T23:49:33.665Z,10.04
2023-01-20T23:51:43.937Z,10.04
2023-01-20T23:53:54.316Z,10.01
2023-01-20T23:56:05.982Z,10.00
2023-01-20T23:58:16.188Z,10.00
